Leon, Oklahoma
Current Conditions -  °F | °C
As of 7:35 AM on Monday 24 Nov 2014 (Local Time) from KGLE Reporting Station
Clear Clear  
Wind Chill: 33°   Ceiling: Unl
Heat Index: 38°   Visibility: 10mi
Dew Point: 30°   Wind: 7mph
Humidity: 73%   Direction: 290°WNW
Pressure: 30"   Gusts: NA
Location:  33.88°N, 97.43°W
Report Text: KGLE 241335Z AUTO 29006KT 10SM CLR 03/M01 A3000 RMK AO2 T00331012
Loading
Personal Weather Stations






























Interactive Weather Map New forecast layout! Learn more

10-Day Weather Forecast

Advertisements
Track Severe Weather on mobile